Meteorológiai információk azoknak akik tudják olvasni.

METAR = LHBP 102130Z 29014KT CAVOK 03/M01 Q1013 NOSIG

9 órás TAF = TAF TAF LHBP 242330Z 2423/2424 30008KT CAVOK BECMG 2506/2509 24010KT OVC030 TEMPO 2509/2515 24015G25KT 8000 -RA BKN013 OVC025 BECMG 2515/2518 30008KT CAVOK

24 órás TAF = TAF TAF LHBP 101715Z 1018/1118 29011KT CAVOK BECMG 1023/1101 27006KT BECMG 1104/1106 SCT030 BKN050 TEMPO 1108/1118 4000 SNRA SN BKN010 OVC030

ÁLLOMÁS.................... LHBP
ÉSZLELÉS................... Mon Dec 10, 22:30 CET
MOST....................... Mon Dec 10, 22:42 CET
IDŐ........................ 12 perccel ezelőtt
SZÉL....................... NYÉNY irányból 14 csomó
LÁTÁSTÁVOLSÁG.............. 10 km vagy több
FELHŐZET................... jelentős felhőzet nincs
HŐMÉRSÉKLET................ 37°F (3°C)
HŐÉRZET.................... 28°F (-2°C)
HARMATPONT................. 30°F (-1°C)
PÁRATARTALOM............... 75%
LÉGNYOMÁS.................. 1013 hPa (29.91 in Hg)

További információ LHBP állomásról

Meteor információ kérése:        állomásról.    

 

www.tothgeza.hu

 

English version
Copyright © 2003-2018 Tóth Géza Minden jog fenntartva.